Terminal Aerodrome Forecast
Issued by NWS Jacksonville, FL

Home | Current Version | Previous Version | Text Only | Print | Product List | Glossary On
Versions: 1 2 3 4 5 6 7 8 9 10 11 12 13 14 15 16 17 18 19
000
FTUS42 KJAX 020537
TAFSSI
TAF
KSSI 020537Z 0206/0306 24007KT P6SM FEW250
     FM021400 23008KT P6SM SCT025 SCT150 SCT250
     FM021700 19011KT P6SM VCTS BKN045CB BKN150 BKN250 PROB30
      0217/0221 VRB15G30KT 3SM TSRA BR SCT025 BKN040CB OVC090
     FM022300 20007KT P6SM VCSH SCT020 BKN050 OVC120=

USA.gov is the U.S. government's official web portal to all federal, state and local government web resources and services.